createdAt,value
2018-11-06T00:01:41.759Z,23.03
2018-11-06T00:04:10.225Z,24.70
2018-11-06T00:06:38.702Z,23.50
2018-11-06T00:09:08.203Z,23.90
2018-11-06T00:11:36.651Z,25.33
2018-11-06T00:14:05.629Z,27.80
2018-11-06T00:16:34.097Z,25.83
2018-11-06T00:19:02.593Z,24.63
2018-11-06T00:21:31.080Z,25.43
2018-11-06T00:23:59.552Z,21.17
2018-11-06T00:26:28.062Z,22.40
2018-11-06T00:28:56.527Z,23.17
2018-11-06T00:31:24.991Z,22.60
2018-11-06T00:33:53.452Z,20.37
2018-11-06T00:36:21.935Z,21.80
2018-11-06T00:38:50.374Z,21.70
2018-11-06T00:41:18.850Z,22.10
2018-11-06T00:43:47.462Z,20.33
2018-11-06T00:46:15.942Z,22.17
2018-11-06T00:48:44.404Z,21.43
2018-11-06T00:51:12.894Z,22.50
2018-11-06T00:53:41.336Z,24.57
2018-11-06T00:56:09.936Z,21.93
2018-11-06T00:58:38.416Z,24.07
2018-11-06T01:01:06.944Z,22.30
2018-11-06T01:03:40.930Z,22.47
2018-11-06T01:06:09.375Z,21.80
2018-11-06T01:08:38.901Z,21.13
2018-11-06T01:11:07.384Z,22.13
2018-11-06T01:13:35.845Z,22.43
2018-11-06T01:16:04.331Z,22.30
2018-11-06T01:18:32.801Z,22.47
2018-11-06T01:21:01.318Z,22.40
2018-11-06T01:23:29.771Z,21.60
2018-11-06T01:25:58.284Z,23.97
2018-11-06T01:28:26.742Z,22.27
2018-11-06T01:30:55.218Z,21.83
2018-11-06T01:33:23.670Z,21.17
2018-11-06T01:35:52.132Z,21.90
2018-11-06T01:38:20.923Z,21.40
2018-11-06T01:40:49.456Z,22.87
2018-11-06T01:43:17.949Z,21.77
2018-11-06T01:45:46.413Z,21.00
2018-11-06T01:48:14.903Z,21.47
2018-11-06T01:50:43.408Z,20.80
2018-11-06T01:53:11.923Z,20.57
2018-11-06T01:55:52.785Z,22.20
2018-11-06T01:58:21.245Z,20.63
2018-11-06T02:00:49.715Z,21.80
2018-11-06T02:03:18.171Z,20.83
2018-11-06T02:05:46.627Z,21.43
2018-11-06T02:08:16.152Z,19.63
2018-11-06T02:10:44.619Z,20.23
2018-11-06T02:13:13.068Z,20.97
2018-11-06T02:15:41.555Z,19.13
2018-11-06T02:18:10.055Z,18.87
2018-11-06T02:20:38.516Z,20.10
2018-11-06T02:23:06.961Z,17.43
2018-11-06T02:25:35.405Z,18.80
2018-11-06T02:28:03.887Z,18.23
2018-11-06T02:30:32.362Z,17.00
2018-11-06T02:33:00.811Z,18.30
2018-11-06T02:35:29.305Z,19.77
2018-11-06T02:37:57.764Z,20.07
2018-11-06T02:40:26.280Z,20.60
2018-11-06T02:42:54.731Z,21.93
2018-11-06T02:45:23.176Z,21.10
2018-11-06T02:47:51.687Z,20.27
2018-11-06T02:50:20.281Z,19.47
2018-11-06T02:52:48.741Z,20.30
2018-11-06T02:55:17.170Z,19.10
2018-11-06T02:57:45.633Z,20.40
2018-11-06T03:00:15.200Z,18.33
2018-11-06T03:02:44.382Z,18.10
2018-11-06T03:05:12.833Z,17.90
2018-11-06T03:07:41.874Z,18.07
2018-11-06T03:10:11.586Z,17.47
2018-11-06T03:12:41.078Z,19.80
2018-11-06T03:15:10.487Z,16.67
2018-11-06T03:17:38.980Z,18.50
2018-11-06T03:20:08.152Z,17.50
2018-11-06T03:22:36.619Z,17.57
2018-11-06T03:25:05.252Z,17.53
2018-11-06T03:27:33.716Z,17.57
2018-11-06T03:30:02.214Z,17.60
2018-11-06T03:32:30.731Z,16.80
2018-11-06T03:34:59.186Z,15.77
2018-11-06T03:37:27.659Z,15.73
2018-11-06T03:39:56.119Z,16.10
2018-11-06T03:42:24.597Z,16.17
2018-11-06T03:44:53.011Z,16.50
2018-11-06T03:47:21.503Z,17.27
2018-11-06T03:49:49.971Z,19.30
2018-11-06T03:52:18.427Z,18.67
2018-11-06T03:54:46.891Z,18.67
2018-11-06T03:57:15.342Z,20.73
2018-11-06T03:59:43.773Z,18.83
2018-11-06T04:02:12.249Z,19.33
2018-11-06T04:04:40.700Z,19.07
2018-11-06T04:07:09.215Z,19.60
2018-11-06T04:09:37.679Z,18.93
2018-11-06T04:12:06.167Z,17.10
2018-11-06T04:14:34.630Z,18.30
2018-11-06T04:17:03.036Z,18.50
2018-11-06T04:19:31.400Z,19.10
2018-11-06T04:21:59.756Z,19.07
2018-11-06T04:24:28.181Z,18.63
2018-11-06T04:26:56.564Z,18.40
2018-11-06T04:29:24.978Z,17.87
2018-11-06T04:31:53.351Z,18.20
2018-11-06T04:34:21.771Z,16.70
2018-11-06T04:36:50.160Z,16.27
2018-11-06T04:39:18.583Z,15.27
2018-11-06T04:41:46.951Z,17.20
2018-11-06T04:44:15.351Z,14.53
2018-11-06T04:46:43.714Z,15.87
2018-11-06T04:49:12.268Z,12.77
2018-11-06T04:51:40.634Z,14.87
2018-11-06T04:54:09.007Z,13.53
2018-11-06T04:56:37.403Z,14.30
2018-11-06T04:59:05.815Z,13.97
2018-11-06T05:01:34.203Z,14.23
2018-11-06T05:04:02.602Z,13.30
2018-11-06T05:06:30.991Z,13.17
2018-11-06T05:08:59.385Z,13.83
2018-11-06T05:11:27.819Z,14.23
2018-11-06T05:13:56.268Z,14.00
2018-11-06T05:16:24.639Z,13.77
2018-11-06T05:18:53.076Z,13.30
2018-11-06T05:21:21.479Z,14.83
2018-11-06T05:23:49.906Z,12.70
2018-11-06T05:26:18.281Z,13.07
2018-11-06T05:28:46.734Z,13.83
2018-11-06T05:31:15.140Z,13.03
2018-11-06T05:33:43.955Z,12.47
2018-11-06T05:36:12.376Z,13.33
2018-11-06T05:38:40.792Z,12.40
2018-11-06T05:41:09.310Z,12.93
2018-11-06T05:43:40.261Z,12.37
2018-11-06T05:46:08.647Z,12.80
2018-11-06T05:48:37.468Z,13.37
2018-11-06T05:51:05.994Z,13.57
2018-11-06T05:53:34.419Z,13.00
2018-11-06T05:56:02.796Z,14.40
2018-11-06T05:58:31.199Z,13.93
2018-11-06T06:00:59.598Z,14.30
2018-11-06T06:03:28.139Z,15.20
2018-11-06T06:05:56.584Z,13.37
2018-11-06T06:08:24.998Z,13.40
2018-11-06T06:10:53.486Z,14.53
2018-11-06T06:13:21.924Z,13.57
2018-11-06T06:15:50.314Z,13.00
2018-11-06T06:18:18.764Z,13.60
2018-11-06T06:20:47.190Z,14.20
2018-11-06T06:23:17.719Z,12.93
2018-11-06T06:25:46.150Z,13.03
2018-11-06T06:28:14.665Z,13.60
2018-11-06T06:30:43.169Z,13.77
2018-11-06T06:33:21.376Z,13.80
2018-11-06T06:35:49.824Z,14.67
2018-11-06T06:38:18.279Z,19.60
2018-11-06T06:40:46.728Z,15.33
2018-11-06T06:43:15.189Z,15.17
2018-11-06T06:45:43.636Z,15.60
2018-11-06T06:48:12.069Z,39.70
2018-11-06T06:50:40.490Z,20.60
2018-11-06T06:53:08.949Z,15.43
2018-11-06T06:55:37.399Z,15.20
2018-11-06T06:58:05.816Z,15.00
2018-11-06T07:00:34.221Z,14.87
2018-11-06T07:03:02.711Z,15.43
2018-11-06T07:05:31.183Z,15.70
2018-11-06T07:07:59.688Z,13.60
2018-11-06T07:10:28.126Z,15.67
2018-11-06T07:12:56.631Z,14.20
2018-11-06T07:15:24.971Z,13.63
2018-11-06T07:17:53.356Z,14.00
2018-11-06T07:20:23.192Z,13.70
2018-11-06T07:22:51.566Z,14.50
2018-11-06T07:25:20.019Z,18.07
2018-11-06T07:27:48.815Z,18.77
2018-11-06T07:30:19.466Z,12.43
2018-11-06T07:32:48.005Z,13.20
2018-11-06T07:35:17.118Z,12.80
2018-11-06T07:37:45.812Z,13.00
2018-11-06T07:40:15.345Z,14.90
2018-11-06T07:42:43.777Z,12.80
2018-11-06T07:45:13.641Z,12.07
2018-11-06T07:47:43.408Z,19.23
2018-11-06T07:50:12.678Z,17.10
2018-11-06T07:52:41.199Z,13.87
2018-11-06T07:55:12.063Z,12.10
2018-11-06T07:57:40.548Z,14.30
2018-11-06T08:00:21.715Z,13.20
2018-11-06T08:02:50.534Z,13.30
2018-11-06T08:05:19.008Z,12.60
2018-11-06T08:07:48.190Z,13.20
2018-11-06T08:10:16.571Z,15.73
2018-11-06T08:12:46.583Z,12.53
2018-11-06T08:15:15.062Z,19.73
2018-11-06T08:17:44.310Z,22.23
2018-11-06T08:20:12.755Z,15.80
2018-11-06T08:22:41.101Z,14.33
2018-11-06T08:25:11.686Z,13.50
2018-11-06T08:27:40.876Z,13.77
2018-11-06T08:30:09.899Z,13.67
2018-11-06T08:32:39.897Z,14.80
2018-11-06T08:35:10.241Z,14.93
2018-11-06T08:37:38.797Z,15.17
2018-11-06T08:40:08.204Z,14.03
2018-11-06T08:42:36.798Z,13.03
2018-11-06T08:45:06.511Z,13.00
2018-11-06T08:47:34.915Z,15.20
2018-11-06T08:50:03.435Z,13.33
2018-11-06T08:52:32.043Z,13.60
2018-11-06T08:55:00.538Z,13.47
2018-11-06T08:57:28.909Z,14.67
2018-11-06T08:59:57.387Z,13.63
2018-11-06T09:02:25.831Z,13.90
2018-11-06T09:04:54.175Z,13.97
2018-11-06T09:07:22.558Z,14.10
2018-11-06T09:09:50.931Z,13.90
2018-11-06T09:12:19.352Z,14.13
2018-11-06T09:14:47.885Z,14.63
2018-11-06T09:17:16.255Z,15.27
2018-11-06T09:19:44.648Z,14.87
2018-11-06T09:22:13.223Z,15.57
2018-11-06T09:24:41.581Z,15.53
2018-11-06T09:27:09.987Z,16.20
2018-11-06T09:29:38.335Z,15.73
2018-11-06T09:32:07.148Z,15.90
2018-11-06T09:34:35.526Z,16.30
2018-11-06T09:37:03.926Z,16.33
2018-11-06T09:39:32.279Z,16.13
2018-11-06T09:42:00.649Z,17.00
2018-11-06T09:44:29.012Z,15.63
2018-11-06T09:46:57.382Z,16.27
2018-11-06T09:49:25.825Z,17.30
2018-11-06T09:51:54.442Z,14.90
2018-11-06T09:54:22.797Z,16.73
2018-11-06T09:56:51.172Z,17.57
2018-11-06T09:59:19.522Z,17.93
2018-11-06T10:01:47.892Z,17.00
2018-11-06T10:04:16.378Z,15.93
2018-11-06T10:06:45.017Z,18.03
2018-11-06T10:09:13.920Z,17.37
2018-11-06T10:11:42.580Z,17.43
2018-11-06T10:14:19.197Z,18.50
2018-11-06T10:19:30.440Z,17.90
2018-11-06T10:22:01.091Z,17.67
2018-11-06T10:24:41.224Z,17.90
2018-11-06T10:27:22.872Z,18.33
2018-11-06T10:30:11.158Z,18.43
2018-11-06T10:32:47.871Z,19.00
2018-11-06T10:35:25.334Z,19.43
2018-11-06T10:38:01.616Z,20.23
2018-11-06T10:40:43.644Z,18.53
2018-11-06T10:43:21.057Z,17.70
2018-11-06T10:45:59.828Z,18.00
2018-11-06T10:48:37.709Z,20.20
2018-11-06T10:51:15.135Z,17.93
2018-11-06T10:53:45.474Z,19.27
2018-11-06T10:56:15.323Z,19.83
2018-11-06T10:58:49.249Z,17.90
2018-11-06T11:01:27.442Z,18.67
2018-11-06T11:04:08.305Z,18.67
2018-11-06T11:06:43.016Z,18.17
2018-11-06T11:09:22.124Z,17.40
2018-11-06T11:11:58.969Z,16.50
2018-11-06T11:14:36.947Z,18.50
2018-11-06T11:17:11.653Z,18.37
2018-11-06T11:19:41.028Z,18.17
2018-11-06T11:22:10.419Z,18.67
2018-11-06T11:24:41.010Z,18.33
2018-11-06T11:27:11.909Z,19.10
2018-11-06T11:29:41.228Z,18.10
2018-11-06T11:32:10.011Z,18.90
2018-11-06T11:34:40.157Z,19.03
2018-11-06T11:37:14.365Z,18.77
2018-11-06T11:39:48.688Z,19.17
2018-11-06T11:42:21.703Z,19.07
2018-11-06T11:44:59.058Z,18.23
2018-11-06T11:47:30.917Z,18.50
2018-11-06T11:50:04.198Z,19.50
2018-11-06T11:52:35.118Z,19.67
2018-11-06T11:55:05.418Z,18.87
2018-11-06T11:57:38.438Z,19.77
2018-11-06T12:00:10.653Z,18.37
2018-11-06T12:02:44.182Z,17.60
2018-11-06T12:05:16.471Z,20.20
2018-11-06T12:07:50.789Z,18.57
2018-11-06T12:10:22.462Z,19.20
2018-11-06T12:12:54.698Z,19.03
2018-11-06T12:15:24.801Z,19.33
2018-11-06T12:17:55.220Z,20.27
2018-11-06T12:20:26.318Z,18.47
2018-11-06T12:22:56.937Z,17.43
2018-11-06T12:25:27.799Z,18.63
2018-11-06T12:28:01.368Z,18.47
2018-11-06T12:30:32.850Z,16.83
2018-11-06T12:33:05.818Z,18.97
2018-11-06T12:35:35.760Z,18.70
2018-11-06T12:38:06.316Z,18.60
2018-11-06T12:40:36.284Z,21.07
2018-11-06T12:43:09.973Z,18.50
2018-11-06T12:45:46.354Z,18.10
2018-11-06T12:48:15.043Z,17.30
2018-11-06T12:53:42.071Z,16.87
2018-11-06T12:56:18.763Z,19.23
2018-11-06T12:58:54.771Z,18.30
2018-11-06T13:01:35.117Z,17.90
2018-11-06T13:04:11.563Z,18.43
2018-11-06T13:06:43.893Z,18.17
2018-11-06T13:09:16.156Z,19.00
2018-11-06T13:11:48.437Z,19.23
2018-11-06T13:14:21.810Z,19.80
2018-11-06T13:16:54.533Z,18.63
2018-11-06T13:19:24.362Z,18.93
2018-11-06T13:21:55.907Z,19.23
2018-11-06T13:24:27.640Z,17.50
2018-11-06T13:26:57.932Z,16.83
2018-11-06T13:29:32.010Z,19.03
2018-11-06T13:32:06.654Z,17.63
2018-11-06T13:34:39.458Z,18.70
2018-11-06T13:37:08.022Z,17.70
2018-11-06T13:39:36.383Z,17.07
2018-11-06T13:42:05.272Z,17.00
2018-11-06T13:44:34.006Z,17.50
2018-11-06T13:47:02.065Z,17.40
2018-11-06T13:49:30.471Z,17.97
2018-11-06T13:51:58.891Z,18.43
2018-11-06T13:54:27.338Z,17.53
2018-11-06T13:56:55.926Z,19.67
2018-11-06T13:59:24.362Z,19.73
2018-11-06T14:01:54.791Z,18.20
2018-11-06T14:04:24.056Z,16.60
2018-11-06T14:06:54.254Z,15.63
2018-11-06T14:09:23.336Z,16.43
2018-11-06T14:11:53.828Z,17.60
2018-11-06T14:14:22.592Z,17.40
2018-11-06T14:16:51.320Z,16.20
2018-11-06T14:19:19.905Z,17.20
2018-11-06T14:21:48.926Z,17.53
2018-11-06T14:24:17.643Z,17.63
2018-11-06T14:29:41.377Z,17.20
2018-11-06T14:32:09.981Z,16.37
2018-11-06T14:34:38.647Z,16.90
2018-11-06T14:37:07.272Z,14.97
2018-11-06T14:39:35.844Z,16.00
2018-11-06T14:42:04.940Z,16.97
2018-11-06T14:44:33.973Z,15.70
2018-11-06T14:47:02.849Z,16.10
2018-11-06T14:49:31.613Z,17.63
2018-11-06T14:52:00.765Z,16.03
2018-11-06T14:54:29.632Z,16.03
2018-11-06T14:56:58.620Z,16.93
2018-11-06T14:59:27.502Z,14.80
2018-11-06T15:01:56.649Z,16.73
2018-11-06T15:04:27.042Z,16.83
2018-11-06T15:06:56.625Z,15.10
2018-11-06T15:09:25.279Z,16.30
2018-11-06T15:11:53.691Z,17.50
2018-11-06T15:14:22.140Z,17.93
2018-11-06T15:16:50.531Z,16.90
2018-11-06T15:19:18.971Z,16.73
2018-11-06T15:21:47.431Z,17.77
2018-11-06T15:24:15.947Z,32.07
2018-11-06T15:26:44.356Z,28.27
2018-11-06T15:29:12.836Z,20.53
2018-11-06T15:31:41.292Z,18.90
2018-11-06T15:34:09.708Z,16.43
2018-11-06T15:36:38.122Z,16.77
2018-11-06T15:39:08.500Z,14.97
2018-11-06T15:41:37.691Z,16.70
2018-11-06T15:44:06.367Z,15.60
2018-11-06T15:46:35.030Z,16.57
2018-11-06T15:49:03.461Z,17.10
2018-11-06T15:51:31.843Z,14.90
2018-11-06T15:54:00.338Z,16.40
2018-11-06T15:56:36.600Z,15.63
2018-11-06T15:59:05.282Z,16.30
2018-11-06T16:01:33.826Z,16.10
2018-11-06T16:04:02.443Z,16.90
2018-11-06T16:06:31.021Z,17.93
2018-11-06T16:08:59.504Z,17.27
2018-11-06T16:11:27.881Z,18.60
2018-11-06T16:13:56.426Z,18.10
2018-11-06T16:16:24.988Z,18.53
2018-11-06T16:18:53.465Z,49.17
2018-11-06T16:21:22.031Z,80.30
2018-11-06T16:23:50.449Z,34.00
2018-11-06T16:26:18.977Z,23.03
2018-11-06T16:28:47.484Z,20.77
2018-11-06T16:31:15.968Z,19.43
2018-11-06T16:33:44.641Z,19.40
2018-11-06T16:36:13.203Z,18.90
2018-11-06T16:38:41.764Z,17.43
2018-11-06T16:41:10.183Z,18.63
2018-11-06T16:43:38.820Z,18.00
2018-11-06T16:46:07.196Z,17.97
2018-11-06T16:48:35.683Z,19.20
2018-11-06T16:51:04.516Z,17.70
2018-11-06T16:53:33.046Z,17.30
2018-11-06T16:56:01.480Z,18.10
2018-11-06T16:58:29.906Z,20.77
2018-11-06T17:00:58.470Z,17.87
2018-11-06T17:03:26.827Z,21.03
2018-11-06T17:05:55.277Z,23.90
2018-11-06T17:08:23.736Z,20.40
2018-11-06T17:10:52.211Z,35.40
2018-11-06T17:13:20.637Z,26.33
2018-11-06T17:15:50.598Z,23.60
2018-11-06T17:18:19.179Z,19.80
2018-11-06T17:20:47.864Z,21.40
2018-11-06T17:23:16.516Z,21.70
2018-11-06T17:25:45.215Z,20.50
2018-11-06T17:28:13.906Z,20.07
2018-11-06T17:30:42.955Z,22.97
2018-11-06T17:33:11.514Z,22.17
2018-11-06T17:35:40.227Z,23.70
2018-11-06T17:38:08.753Z,24.27
2018-11-06T17:40:37.337Z,22.63
2018-11-06T17:43:06.125Z,25.00
2018-11-06T17:45:34.565Z,25.17
2018-11-06T17:48:03.741Z,23.60
2018-11-06T17:50:32.279Z,23.23
2018-11-06T17:53:01.075Z,24.97
2018-11-06T17:55:29.895Z,24.27
2018-11-06T17:57:58.707Z,24.23
2018-11-06T18:00:27.627Z,26.23
2018-11-06T18:02:56.895Z,25.10
2018-11-06T18:05:27.085Z,26.07
2018-11-06T18:07:55.658Z,25.23
2018-11-06T18:10:26.052Z,27.50
2018-11-06T18:12:54.861Z,28.00
2018-11-06T18:15:25.043Z,28.60
2018-11-06T18:17:54.136Z,26.23
2018-11-06T18:20:23.161Z,26.00
2018-11-06T18:22:52.876Z,28.93
2018-11-06T18:30:53.119Z,27.00
2018-11-06T18:33:28.232Z,28.17
2018-11-06T18:36:07.672Z,29.10
2018-11-06T18:38:53.756Z,29.87
2018-11-06T18:41:40.126Z,28.07
2018-11-06T19:32:50.360Z,26.13
2018-11-06T19:38:39.820Z,24.70
2018-11-06T19:41:08.639Z,26.77
2018-11-06T19:43:37.737Z,27.80
2018-11-06T19:46:08.617Z,27.70
2018-11-06T19:48:37.514Z,27.87
2018-11-06T19:51:06.297Z,30.00
2018-11-06T19:53:35.175Z,30.37
2018-11-06T19:56:04.016Z,32.37
2018-11-06T19:58:32.763Z,32.37
2018-11-06T20:01:02.469Z,31.80
2018-11-06T20:03:31.348Z,34.67
2018-11-06T20:06:00.196Z,33.57
2018-11-06T20:08:29.052Z,35.83
2018-11-06T20:10:58.784Z,35.33
2018-11-06T20:13:27.566Z,39.77
2018-11-06T20:29:22.805Z,35.13
2018-11-06T20:31:52.773Z,34.87
2018-11-06T20:34:21.544Z,36.73
2018-11-06T20:36:50.229Z,37.47
2018-11-06T20:39:19.084Z,36.27
2018-11-06T20:41:47.832Z,36.67
2018-11-06T20:44:16.496Z,35.03
2018-11-06T20:49:25.108Z,38.10
2018-11-06T20:51:54.210Z,41.87
2018-11-06T20:54:22.872Z,40.90
2018-11-06T20:56:51.574Z,40.70
2018-11-06T20:59:20.327Z,38.80
2018-11-06T21:01:49.048Z,37.10
2018-11-06T21:04:17.655Z,36.43
2018-11-06T21:06:46.458Z,37.03
2018-11-06T21:09:15.112Z,36.17
2018-11-06T21:11:44.415Z,35.30
2018-11-06T21:14:13.035Z,36.00
2018-11-06T21:16:56.304Z,36.40
2018-11-06T21:19:25.092Z,34.43
2018-11-06T21:21:53.826Z,35.50
2018-11-06T21:24:22.508Z,31.00
2018-11-06T21:26:51.305Z,44.03
2018-11-06T21:29:20.384Z,38.83
2018-11-06T21:31:49.453Z,34.87
2018-11-06T21:34:18.487Z,36.00
2018-11-06T21:36:47.390Z,34.80
2018-11-06T21:42:10.789Z,38.60
2018-11-06T21:44:43.668Z,31.00
2018-11-06T21:47:13.628Z,32.17
2018-11-06T21:49:45.997Z,32.43
2018-11-06T21:52:15.939Z,32.47
2018-11-06T21:54:45.532Z,33.73
2018-11-06T21:57:14.691Z,32.90
2018-11-06T21:59:44.053Z,33.10
2018-11-06T22:02:13.211Z,36.20
2018-11-06T22:04:48.036Z,32.93
2018-11-06T22:07:17.653Z,31.90
2018-11-06T22:09:47.182Z,33.90
2018-11-06T22:12:17.191Z,31.90
2018-11-06T22:14:46.326Z,30.37
2018-11-06T22:17:15.493Z,34.03
2018-11-06T22:19:44.696Z,34.80
2018-11-06T22:22:14.478Z,34.17
2018-11-06T22:24:43.563Z,32.83
2018-11-06T22:27:14.257Z,42.67
2018-11-06T22:29:43.594Z,38.10
2018-11-06T22:32:13.170Z,36.80
2018-11-06T22:34:42.306Z,35.53
2018-11-06T22:43:32.971Z,32.97
2018-11-06T22:46:04.770Z,31.30
2018-11-06T22:48:34.363Z,31.10
2018-11-06T22:51:03.865Z,33.13
2018-11-06T22:53:33.823Z,35.77
2018-11-06T22:56:03.703Z,34.30
2018-11-06T23:01:19.262Z,33.20
2018-11-06T23:03:54.699Z,33.50
2018-11-06T23:06:24.240Z,35.00
2018-11-06T23:08:53.844Z,33.30
2018-11-06T23:11:23.070Z,35.57
2018-11-06T23:13:52.276Z,34.60
2018-11-06T23:16:21.213Z,33.33
2018-11-06T23:18:50.250Z,32.70
2018-11-06T23:21:19.422Z,32.23
2018-11-06T23:23:48.276Z,31.40
2018-11-06T23:26:17.161Z,31.33
2018-11-06T23:28:45.947Z,31.13
2018-11-06T23:31:14.869Z,29.47
2018-11-06T23:33:44.076Z,30.83
2018-11-06T23:36:12.910Z,28.83
2018-11-06T23:38:41.628Z,27.97
2018-11-06T23:41:10.567Z,28.40
2018-11-06T23:43:39.827Z,30.00
2018-11-06T23:46:09.067Z,26.33
2018-11-06T23:48:38.354Z,25.30
2018-11-06T23:51:07.552Z,24.40
2018-11-06T23:53:36.349Z,25.30
2018-11-06T23:56:05.036Z,27.30
2018-11-06T23:58:33.583Z,25.00
